Everglades City, Florida
Current Conditions -  °F | °C
As of 7:35 PM on Friday 21 Nov 2014 (Local Time) from KMKY Reporting Station
Broken Clouds Broken Clouds  
Wind Chill: 70°   Ceiling: 8000
Heat Index: 70°   Visibility: 10mi
Dew Point: 64°   Wind: 14mph
Humidity: 83%   Direction: 60°ENE
Pressure: 30.16"   Gusts: 22mph
Location:  25.86°N, 81.38°W
Report Text: KMKY 220035Z AUTO 06012G19KT 10SM FEW040 BKN080 21/18 A3016 RMK AO1
Loading
Personal Weather Stations






























Interactive Weather Map New forecast layout! Learn more

10-Day Weather Forecast

Advertisements
Track Severe Weather on mobile